createdAt,value
2022-11-27T00:00:17.570Z,4.99
2022-11-27T00:01:17.577Z,5.02
2022-11-27T00:02:17.582Z,5.04
2022-11-27T00:03:17.669Z,5.05
2022-11-27T00:04:17.598Z,5.07
2022-11-27T00:05:17.506Z,5.07
2022-11-27T00:06:17.520Z,5.08
2022-11-27T00:07:17.590Z,5.10
2022-11-27T00:08:17.483Z,5.12
2022-11-27T00:09:17.461Z,5.17
2022-11-27T00:10:17.467Z,5.25
2022-11-27T00:11:17.497Z,5.33
2022-11-27T00:12:17.445Z,5.35
2022-11-27T00:13:17.414Z,5.35
2022-11-27T00:14:17.429Z,5.43
2022-11-27T00:15:17.571Z,5.41
2022-11-27T00:16:17.470Z,5.38
2022-11-27T00:17:17.375Z,5.30
2022-11-27T00:18:17.361Z,5.29
2022-11-27T00:19:17.346Z,5.26
2022-11-27T00:20:17.359Z,5.17
2022-11-27T00:21:17.380Z,5.20
2022-11-27T00:22:17.348Z,5.17
2022-11-27T00:23:17.312Z,5.14
2022-11-27T00:24:17.294Z,5.15
2022-11-27T00:25:17.289Z,5.14
2022-11-27T00:26:17.317Z,5.14
2022-11-27T00:27:17.271Z,5.12
2022-11-27T00:28:17.233Z,5.20
2022-11-27T00:29:17.245Z,5.23
2022-11-27T00:30:17.219Z,5.26
2022-11-27T00:31:17.360Z,5.25
2022-11-27T00:32:17.197Z,5.29
2022-11-27T00:33:17.199Z,5.36
2022-11-27T00:34:17.174Z,5.39
2022-11-27T00:35:17.180Z,5.44
2022-11-27T00:36:17.202Z,5.47
2022-11-27T00:37:17.152Z,5.51
2022-11-27T00:38:17.158Z,5.51
2022-11-27T00:39:17.122Z,5.48
2022-11-27T00:40:17.124Z,5.48
2022-11-27T00:41:17.121Z,5.41
2022-11-27T00:42:17.106Z,5.38
2022-11-27T00:43:17.079Z,5.33
2022-11-27T00:44:17.068Z,5.32
2022-11-27T00:45:17.062Z,5.28
2022-11-27T00:46:17.137Z,5.25
2022-11-27T00:47:17.051Z,5.18
2022-11-27T00:48:17.027Z,5.18
2022-11-27T00:49:17.010Z,5.14
2022-11-27T00:50:16.997Z,5.11
2022-11-27T00:51:17.010Z,5.12
2022-11-27T00:52:16.949Z,5.15
2022-11-27T00:53:16.944Z,5.17
2022-11-27T00:54:16.931Z,5.18
2022-11-27T00:55:16.947Z,5.17
2022-11-27T00:56:16.969Z,5.17
2022-11-27T00:57:16.936Z,5.14
2022-11-27T00:58:16.912Z,5.18
2022-11-27T00:59:16.905Z,5.18
2022-11-27T01:00:16.883Z,5.20
2022-11-27T01:01:16.944Z,5.23
2022-11-27T01:02:16.949Z,5.21
2022-11-27T01:03:16.957Z,5.21
2022-11-27T01:04:16.842Z,5.21
2022-11-27T01:05:16.853Z,5.23
2022-11-27T01:06:16.848Z,5.26
2022-11-27T01:07:16.864Z,5.28
2022-11-27T01:08:16.780Z,5.30
2022-11-27T01:09:16.789Z,5.28
2022-11-27T01:10:16.756Z,5.29
2022-11-27T01:11:16.787Z,5.32
2022-11-27T01:12:16.749Z,5.30
2022-11-27T01:13:16.722Z,5.33
2022-11-27T01:14:16.704Z,5.35
2022-11-27T01:15:16.698Z,5.38
2022-11-27T01:16:16.783Z,5.41
2022-11-27T01:17:16.684Z,5.44
2022-11-27T01:18:16.701Z,5.48
2022-11-27T01:19:16.664Z,5.50
2022-11-27T01:20:16.638Z,5.53
2022-11-27T01:21:16.673Z,5.59
2022-11-27T01:22:16.646Z,5.62
2022-11-27T01:23:16.611Z,5.69
2022-11-27T01:24:16.584Z,5.72
2022-11-27T01:25:16.589Z,5.73
2022-11-27T01:26:16.596Z,5.72
2022-11-27T01:27:16.563Z,5.56
2022-11-27T01:28:16.562Z,5.80
2022-11-27T01:29:16.535Z,5.83
2022-11-27T01:30:16.526Z,5.83
2022-11-27T01:31:16.606Z,5.83
2022-11-27T01:32:16.546Z,5.84
2022-11-27T01:33:16.498Z,5.80
2022-11-27T01:34:16.480Z,5.62
2022-11-27T01:35:16.475Z,5.61
2022-11-27T01:36:16.460Z,5.86
2022-11-27T01:37:16.478Z,5.87
2022-11-27T01:38:16.441Z,5.89
2022-11-27T01:39:16.437Z,5.89
2022-11-27T01:40:16.424Z,5.90
2022-11-27T01:41:16.393Z,5.89
2022-11-27T01:42:16.425Z,5.90
2022-11-27T01:43:16.373Z,5.91
2022-11-27T01:44:16.382Z,5.93
2022-11-27T01:45:16.354Z,5.90
2022-11-27T01:46:16.388Z,5.89
2022-11-27T01:47:16.371Z,5.87
2022-11-27T01:48:16.346Z,5.84
2022-11-27T01:49:16.323Z,5.65
2022-11-27T01:50:16.300Z,5.79
2022-11-27T01:51:16.317Z,5.71
2022-11-27T01:52:16.305Z,5.69
2022-11-27T01:53:16.278Z,5.69
2022-11-27T01:54:16.257Z,5.72
2022-11-27T01:55:16.243Z,5.72
2022-11-27T01:56:16.234Z,5.71
2022-11-27T01:57:16.245Z,5.68
2022-11-27T01:58:16.197Z,5.69
2022-11-27T01:59:16.189Z,5.68
2022-11-27T02:00:16.174Z,5.68
2022-11-27T02:01:16.256Z,5.68
2022-11-27T02:02:16.293Z,5.71
2022-11-27T02:03:16.281Z,5.69
2022-11-27T02:04:16.143Z,5.69
2022-11-27T02:05:16.116Z,5.71
2022-11-27T02:06:16.109Z,5.75
2022-11-27T02:07:16.188Z,5.75
2022-11-27T02:08:16.093Z,5.76
2022-11-27T02:09:16.081Z,5.79
2022-11-27T02:10:16.075Z,5.75
2022-11-27T02:11:16.061Z,5.71
2022-11-27T02:12:16.076Z,5.71
2022-11-27T02:13:16.028Z,5.71
2022-11-27T02:14:16.027Z,5.68
2022-11-27T02:15:16.018Z,5.62
2022-11-27T02:16:18.146Z,5.61
2022-11-27T02:17:16.040Z,5.57
2022-11-27T02:18:15.966Z,5.56
2022-11-27T02:19:15.966Z,5.56
2022-11-27T02:20:15.955Z,5.53
2022-11-27T02:21:15.952Z,5.50
2022-11-27T02:22:15.953Z,5.47
2022-11-27T02:23:15.927Z,5.53
2022-11-27T02:24:15.912Z,5.50
2022-11-27T02:25:15.893Z,5.50
2022-11-27T02:26:15.898Z,5.47
2022-11-27T02:27:15.924Z,5.46
2022-11-27T02:28:15.894Z,5.44
2022-11-27T02:29:15.861Z,5.39
2022-11-27T02:30:15.840Z,5.33
2022-11-27T02:31:15.882Z,5.35
2022-11-27T02:32:15.805Z,5.38
2022-11-27T02:33:15.834Z,5.41
2022-11-27T02:34:15.797Z,5.39
2022-11-27T02:35:15.796Z,5.36
2022-11-27T02:36:15.768Z,5.39
2022-11-27T02:37:15.744Z,5.33
2022-11-27T02:38:15.777Z,5.26
2022-11-27T02:39:15.733Z,5.20
2022-11-27T02:40:15.723Z,5.08
2022-11-27T02:41:15.712Z,4.97
2022-11-27T02:42:15.701Z,4.90
2022-11-27T02:43:15.727Z,4.75
2022-11-27T02:44:15.672Z,4.68
2022-11-27T02:45:15.674Z,4.67
2022-11-27T02:46:15.699Z,4.60
2022-11-27T02:47:15.646Z,4.53
2022-11-27T02:48:15.658Z,4.49
2022-11-27T02:49:15.631Z,4.44
2022-11-27T02:50:15.607Z,4.41
2022-11-27T02:51:15.601Z,4.42
2022-11-27T02:52:15.589Z,4.41
2022-11-27T02:53:15.635Z,4.40
2022-11-27T02:54:15.566Z,4.44
2022-11-27T02:55:15.559Z,4.42
2022-11-27T02:56:15.540Z,4.37
2022-11-27T02:57:15.530Z,4.28
2022-11-27T02:58:15.551Z,4.22
2022-11-27T02:59:15.509Z,4.13
2022-11-27T03:00:15.503Z,4.02
2022-11-27T03:01:15.589Z,3.96
2022-11-27T03:02:15.547Z,3.95
2022-11-27T03:03:15.565Z,3.91
2022-11-27T03:04:15.453Z,3.92
2022-11-27T03:05:15.446Z,3.92
2022-11-27T03:06:15.423Z,3.91
2022-11-27T03:07:15.474Z,3.81
2022-11-27T03:08:15.431Z,3.78
2022-11-27T03:09:15.397Z,3.76
2022-11-27T03:10:15.389Z,3.69
2022-11-27T03:11:15.381Z,3.62
2022-11-27T03:12:15.360Z,3.59
2022-11-27T03:13:15.395Z,3.55
2022-11-27T03:14:15.337Z,3.48
2022-11-27T03:15:15.338Z,3.45
2022-11-27T03:16:15.391Z,3.41
2022-11-27T03:17:15.310Z,3.34
2022-11-27T03:18:15.300Z,3.31
2022-11-27T03:19:15.316Z,3.25
2022-11-27T03:20:15.274Z,3.22
2022-11-27T03:21:15.270Z,3.16
2022-11-27T03:22:15.252Z,3.11
2022-11-27T03:23:15.237Z,3.08
2022-11-27T03:24:15.269Z,3.10
2022-11-27T03:25:15.227Z,3.08
2022-11-27T03:26:15.216Z,3.08
2022-11-27T03:27:15.202Z,3.03
2022-11-27T03:28:15.202Z,3.00
2022-11-27T03:29:15.233Z,2.97
2022-11-27T03:30:15.162Z,2.97
2022-11-27T03:31:15.194Z,2.98
2022-11-27T03:32:15.135Z,3.03
2022-11-27T03:33:15.146Z,3.07
2022-11-27T03:34:15.163Z,3.11
2022-11-27T03:35:15.120Z,3.10
2022-11-27T03:36:15.102Z,3.16
2022-11-27T03:37:15.109Z,3.22
2022-11-27T03:38:15.074Z,3.34
2022-11-27T03:39:15.103Z,3.50
2022-11-27T03:40:15.039Z,3.53
2022-11-27T03:41:15.037Z,3.51
2022-11-27T03:42:15.016Z,3.56
2022-11-27T03:43:15.022Z,3.55
2022-11-27T03:44:15.044Z,3.55
2022-11-27T03:45:15.006Z,3.55
2022-11-27T03:46:15.087Z,3.58
2022-11-27T03:47:15.030Z,3.56
2022-11-27T03:48:14.979Z,3.53
2022-11-27T03:49:14.994Z,3.51
2022-11-27T03:50:14.940Z,3.53
2022-11-27T03:51:14.948Z,3.53
2022-11-27T03:52:14.919Z,3.56
2022-11-27T03:53:14.925Z,3.55
2022-11-27T03:54:14.944Z,3.53
2022-11-27T03:55:14.879Z,3.53
2022-11-27T03:56:14.876Z,3.51
2022-11-27T03:57:14.874Z,3.51
2022-11-27T03:58:14.876Z,3.50
2022-11-27T03:59:14.897Z,3.50
2022-11-27T04:00:14.841Z,3.51
2022-11-27T04:01:14.825Z,3.63
2022-11-27T04:02:14.887Z,3.74
2022-11-27T04:03:14.803Z,3.78
2022-11-27T04:04:14.909Z,3.80
2022-11-27T04:05:14.780Z,3.77
2022-11-27T04:06:14.759Z,3.78
2022-11-27T04:07:14.822Z,3.77
2022-11-27T04:08:14.739Z,3.77
2022-11-27T04:09:14.763Z,3.77
2022-11-27T04:10:14.726Z,3.76
2022-11-27T04:11:14.698Z,3.76
2022-11-27T04:12:14.699Z,3.76
2022-11-27T04:13:14.679Z,3.74
2022-11-27T04:14:14.699Z,3.73
2022-11-27T04:15:14.650Z,3.70
2022-11-27T04:16:14.712Z,3.70
2022-11-27T04:17:14.629Z,3.73
2022-11-27T04:18:14.637Z,3.73
2022-11-27T04:19:14.659Z,3.76
2022-11-27T04:20:14.609Z,3.73
2022-11-27T04:21:14.602Z,3.70
2022-11-27T04:22:14.584Z,3.76
2022-11-27T04:23:14.577Z,3.80
2022-11-27T04:24:14.565Z,3.88
2022-11-27T04:25:14.588Z,3.95
2022-11-27T04:26:14.526Z,3.95
2022-11-27T04:27:14.536Z,3.96
2022-11-27T04:28:14.523Z,3.96
2022-11-27T04:29:14.502Z,3.95
2022-11-27T04:30:14.528Z,3.95
2022-11-27T04:31:14.491Z,3.94
2022-11-27T04:32:14.476Z,3.92
2022-11-27T04:33:14.464Z,3.94
2022-11-27T04:34:14.441Z,3.95
2022-11-27T04:35:14.463Z,3.94
2022-11-27T04:36:14.427Z,3.91
2022-11-27T04:37:14.412Z,3.88
2022-11-27T04:38:14.399Z,3.87
2022-11-27T04:39:14.395Z,3.87
2022-11-27T04:40:14.459Z,3.87
2022-11-27T04:41:14.389Z,3.87
2022-11-27T04:42:14.352Z,3.86
2022-11-27T04:43:14.343Z,3.83
2022-11-27T04:44:14.350Z,3.83
2022-11-27T04:45:14.347Z,3.81
2022-11-27T04:46:14.371Z,3.83
2022-11-27T04:47:14.286Z,3.81
2022-11-27T04:48:14.299Z,3.80
2022-11-27T04:49:14.282Z,3.80
2022-11-27T04:50:14.296Z,3.78
2022-11-27T04:51:14.263Z,3.76
2022-11-27T04:52:14.249Z,3.74
2022-11-27T04:53:14.278Z,3.76
2022-11-27T04:54:14.229Z,3.87
2022-11-27T04:55:14.245Z,3.92
2022-11-27T04:56:14.209Z,3.98
2022-11-27T04:57:14.187Z,4.04
2022-11-27T04:58:14.181Z,4.06
2022-11-27T04:59:14.158Z,4.12
2022-11-27T05:00:14.195Z,4.08
2022-11-27T05:01:14.236Z,4.08
2022-11-27T05:02:14.139Z,3.87
2022-11-27T05:03:14.175Z,4.06
2022-11-27T05:04:14.101Z,4.08
2022-11-27T05:05:14.131Z,3.83
2022-11-27T05:06:14.080Z,4.06
2022-11-27T05:07:14.119Z,3.76
2022-11-27T05:08:14.064Z,4.04
2022-11-27T05:09:14.073Z,3.96
2022-11-27T05:10:14.089Z,3.65
2022-11-27T05:11:14.055Z,3.68
2022-11-27T05:12:14.024Z,3.65
2022-11-27T05:13:13.995Z,3.62
2022-11-27T05:14:13.996Z,3.94
2022-11-27T05:15:14.026Z,3.95
2022-11-27T05:16:14.014Z,3.76
2022-11-27T05:17:13.960Z,3.99
2022-11-27T05:18:13.941Z,3.77
2022-11-27T05:19:13.932Z,3.98
2022-11-27T05:20:13.954Z,3.66
2022-11-27T05:21:13.931Z,3.88
2022-11-27T05:22:13.901Z,3.66
2022-11-27T05:23:13.900Z,3.58
2022-11-27T05:24:13.882Z,3.56
2022-11-27T05:25:13.906Z,3.76
2022-11-27T05:26:13.885Z,3.76
2022-11-27T05:27:13.866Z,3.73
2022-11-27T05:28:13.849Z,3.51
2022-11-27T05:29:13.814Z,3.74
2022-11-27T05:30:13.852Z,3.51
2022-11-27T05:31:13.864Z,3.76
2022-11-27T05:32:13.795Z,3.50
2022-11-27T05:33:13.780Z,3.74
2022-11-27T05:34:13.781Z,3.53
2022-11-27T05:35:13.760Z,3.87
2022-11-27T05:36:13.784Z,3.68
2022-11-27T05:37:18.000Z,3.88
2022-11-27T05:38:14.724Z,3.65
2022-11-27T05:39:13.716Z,3.86
2022-11-27T05:40:13.708Z,3.60
2022-11-27T05:41:13.732Z,3.80
2022-11-27T05:42:13.687Z,3.56
2022-11-27T05:43:13.658Z,3.80
2022-11-27T05:44:13.669Z,3.62
2022-11-27T05:45:13.637Z,3.74
2022-11-27T05:46:13.728Z,3.60
2022-11-27T05:47:13.618Z,3.80
2022-11-27T05:48:13.641Z,3.63
2022-11-27T05:49:13.599Z,3.59
2022-11-27T05:50:13.599Z,3.83
2022-11-27T05:51:13.594Z,3.58
2022-11-27T05:52:13.556Z,3.56
2022-11-27T05:53:13.540Z,3.84
2022-11-27T05:54:13.542Z,3.62
2022-11-27T05:55:13.545Z,3.83
2022-11-27T05:56:13.571Z,3.62
2022-11-27T05:57:13.519Z,3.60
2022-11-27T05:58:13.519Z,3.50
2022-11-27T05:59:13.479Z,3.58
2022-11-27T06:00:13.559Z,3.47
2022-11-27T06:01:13.529Z,3.73
2022-11-27T06:02:19.556Z,3.74
2022-11-27T06:03:14.466Z,3.45
2022-11-27T06:04:13.443Z,3.69
2022-11-27T06:05:13.420Z,3.47
2022-11-27T06:06:13.466Z,3.45
2022-11-27T06:07:13.433Z,3.68
2022-11-27T06:08:13.386Z,3.66
2022-11-27T06:09:13.750Z,3.40
2022-11-27T06:10:13.364Z,3.62
2022-11-27T06:11:13.383Z,3.40
2022-11-27T06:12:13.373Z,3.58
2022-11-27T06:13:13.317Z,3.29
2022-11-27T06:14:13.318Z,3.56
2022-11-27T06:15:13.297Z,3.26
2022-11-27T06:16:13.376Z,3.56
2022-11-27T06:17:13.281Z,3.55
2022-11-27T06:18:13.284Z,3.32
2022-11-27T06:19:13.265Z,3.60
2022-11-27T06:20:13.263Z,3.60
2022-11-27T06:21:13.255Z,3.44
2022-11-27T06:22:13.229Z,3.63
2022-11-27T06:23:13.223Z,3.34
2022-11-27T06:24:13.195Z,3.40
2022-11-27T06:25:13.181Z,3.40
2022-11-27T06:26:13.204Z,3.65
2022-11-27T06:27:13.175Z,3.62
2022-11-27T06:28:13.155Z,3.58
2022-11-27T06:29:13.140Z,3.31
2022-11-27T06:30:13.133Z,3.48
2022-11-27T06:31:17.538Z,3.10
2022-11-27T06:32:14.177Z,3.32
2022-11-27T06:33:13.104Z,3.26
2022-11-27T06:34:13.109Z,3.03
2022-11-27T06:35:13.076Z,3.16
2022-11-27T06:36:13.112Z,2.89
2022-11-27T06:37:13.647Z,3.16
2022-11-27T06:38:13.060Z,3.14
2022-11-27T06:39:13.038Z,2.89
2022-11-27T06:40:13.023Z,2.86
2022-11-27T06:41:13.047Z,2.98
2022-11-27T06:42:13.020Z,2.92
2022-11-27T06:43:13.000Z,2.57
2022-11-27T06:44:12.991Z,2.77
2022-11-27T06:45:12.960Z,2.71
2022-11-27T06:46:13.017Z,2.71
2022-11-27T06:47:12.933Z,2.75
2022-11-27T06:48:12.941Z,2.49
2022-11-27T06:49:12.912Z,2.77
2022-11-27T06:50:12.912Z,2.80
2022-11-27T06:51:12.938Z,2.60
2022-11-27T06:52:12.881Z,2.83
2022-11-27T06:53:12.875Z,2.64
2022-11-27T06:54:12.867Z,2.93
2022-11-27T06:55:12.860Z,2.75
2022-11-27T06:56:12.869Z,2.98
2022-11-27T06:57:12.843Z,3.00
2022-11-27T06:58:12.810Z,2.77
2022-11-27T06:59:12.788Z,2.82
2022-11-27T07:00:12.800Z,2.98
2022-11-27T07:01:12.860Z,2.97
2022-11-27T07:02:12.812Z,3.01
2022-11-27T07:03:12.759Z,2.75
2022-11-27T07:04:12.762Z,2.90
2022-11-27T07:05:12.760Z,2.77
2022-11-27T07:06:12.796Z,2.68
2022-11-27T07:07:12.774Z,2.51
2022-11-27T07:08:12.724Z,2.44
2022-11-27T07:09:12.712Z,2.36
2022-11-27T07:10:12.684Z,2.43
2022-11-27T07:11:12.684Z,2.42
2022-11-27T07:12:12.708Z,2.60
2022-11-27T07:13:12.679Z,2.61
2022-11-27T07:14:12.638Z,2.64
2022-11-27T07:15:12.713Z,2.39
2022-11-27T07:16:12.672Z,2.57
2022-11-27T07:17:12.645Z,2.54
2022-11-27T07:18:12.598Z,2.60
2022-11-27T07:19:12.583Z,2.57
2022-11-27T07:20:12.562Z,2.60
2022-11-27T07:21:12.554Z,2.35
2022-11-27T07:22:12.585Z,2.31
2022-11-27T07:23:12.539Z,2.67
2022-11-27T07:24:12.514Z,2.75
2022-11-27T07:25:12.518Z,2.77
2022-11-27T07:26:12.505Z,2.79
2022-11-27T07:27:12.524Z,2.74
2022-11-27T07:28:17.407Z,2.77
2022-11-27T07:29:13.487Z,2.56
2022-11-27T07:30:12.444Z,2.74
2022-11-27T07:31:12.461Z,2.72
2022-11-27T07:32:12.488Z,2.72
2022-11-27T07:33:12.420Z,2.69
2022-11-27T07:34:17.121Z,2.71
2022-11-27T07:35:13.393Z,2.47
2022-11-27T07:36:12.423Z,2.71
2022-11-27T07:37:12.420Z,2.68
2022-11-27T07:38:12.395Z,2.67
2022-11-27T07:39:12.355Z,2.62
2022-11-27T07:40:13.073Z,2.43
2022-11-27T07:41:12.339Z,2.61
2022-11-27T07:42:36.995Z,2.62
2022-11-27T07:43:13.314Z,2.61
2022-11-27T07:44:12.322Z,2.38
2022-11-27T07:45:12.295Z,2.68
2022-11-27T07:46:12.324Z,2.72
2022-11-27T07:47:12.302Z,2.74
2022-11-27T07:48:12.257Z,2.56
2022-11-27T07:49:12.234Z,2.69
2022-11-27T07:50:12.252Z,3.29
2022-11-27T07:51:12.218Z,3.47
2022-11-27T07:52:12.258Z,3.51
2022-11-27T07:53:12.205Z,3.53
2022-11-27T07:54:12.208Z,4.37
2022-11-27T07:55:12.187Z,5.04
2022-11-27T07:56:12.159Z,5.53
2022-11-27T07:57:12.165Z,5.94
2022-11-27T07:58:12.187Z,6.39
2022-11-27T07:59:12.151Z,6.48
2022-11-27T08:00:12.127Z,7.17
2022-11-27T08:01:12.147Z,7.47
2022-11-27T08:02:12.089Z,7.31
2022-11-27T08:03:12.103Z,7.61
2022-11-27T08:04:12.127Z,7.77
2022-11-27T08:05:13.267Z,7.73
2022-11-27T08:06:12.066Z,7.33
2022-11-27T08:07:12.075Z,7.36
2022-11-27T08:08:12.072Z,7.29
2022-11-27T08:09:12.016Z,7.21
2022-11-27T08:10:12.025Z,6.93
2022-11-27T08:11:11.987Z,6.79
2022-11-27T08:12:11.997Z,6.64
2022-11-27T08:13:12.006Z,6.51
2022-11-27T08:14:11.957Z,6.60
2022-11-27T08:15:11.990Z,6.59
2022-11-27T08:16:11.989Z,6.79
2022-11-27T08:17:11.941Z,6.82
2022-11-27T08:18:11.958Z,7.06
2022-11-27T08:19:11.900Z,7.45
2022-11-27T08:20:11.928Z,7.43
2022-11-27T08:21:11.893Z,7.85
2022-11-27T08:22:11.891Z,7.93
2022-11-27T08:23:11.911Z,7.77
2022-11-27T08:24:11.870Z,7.80
2022-11-27T08:25:11.840Z,7.60
2022-11-27T08:26:11.838Z,7.40
2022-11-27T08:27:11.821Z,7.94
2022-11-27T08:28:11.841Z,7.80
2022-11-27T08:29:11.834Z,7.63
2022-11-27T08:30:11.765Z,7.69
2022-11-27T08:31:11.827Z,7.63
2022-11-27T08:32:11.811Z,7.50
2022-11-27T08:33:11.779Z,7.63
2022-11-27T08:34:11.733Z,7.56
2022-11-27T08:35:11.715Z,7.40
2022-11-27T08:36:17.645Z,7.32
2022-11-27T08:37:12.703Z,7.51
2022-11-27T08:38:11.733Z,7.38
2022-11-27T08:39:11.680Z,7.51
2022-11-27T08:40:11.682Z,7.66
2022-11-27T08:41:11.682Z,7.83
2022-11-27T08:42:11.645Z,8.06
2022-11-27T08:43:11.680Z,7.57
2022-11-27T08:44:11.624Z,7.85
2022-11-27T08:45:11.596Z,7.79
2022-11-27T08:46:11.688Z,7.61
2022-11-27T08:47:11.576Z,7.36
2022-11-27T08:48:11.581Z,7.06
2022-11-27T08:49:11.612Z,6.99
2022-11-27T08:50:11.562Z,7.03
2022-11-27T08:51:11.554Z,7.11
2022-11-27T08:52:11.527Z,7.36
2022-11-27T08:53:11.528Z,7.03
2022-11-27T08:54:11.544Z,7.58
2022-11-27T08:55:11.508Z,7.79
2022-11-27T08:56:11.491Z,7.75
2022-11-27T08:57:11.486Z,7.73
2022-11-27T08:58:11.461Z,7.66
2022-11-27T08:59:11.479Z,7.72
2022-11-27T09:00:11.439Z,7.56
2022-11-27T09:01:11.488Z,7.40
2022-11-27T09:02:11.416Z,7.13
2022-11-27T09:03:11.408Z,6.95
2022-11-27T09:04:11.432Z,7.03
2022-11-27T09:05:11.398Z,6.96
2022-11-27T09:06:11.381Z,6.95
2022-11-27T09:07:11.418Z,6.96
2022-11-27T09:08:11.333Z,6.95
2022-11-27T09:09:11.363Z,7.02
2022-11-27T09:10:11.440Z,6.81
2022-11-27T09:11:11.317Z,6.78
2022-11-27T09:12:11.306Z,6.81
2022-11-27T09:13:11.308Z,6.92
2022-11-27T09:14:11.311Z,6.97
2022-11-27T09:15:11.290Z,7.07
2022-11-27T09:16:11.313Z,7.21
2022-11-27T09:17:11.253Z,7.23
2022-11-27T09:18:11.223Z,7.28
2022-11-27T09:19:11.258Z,7.54
2022-11-27T09:20:11.213Z,7.50
2022-11-27T09:21:11.208Z,7.45
2022-11-27T09:22:11.190Z,7.51
2022-11-27T09:23:14.387Z,7.48
2022-11-27T09:24:11.198Z,7.38
2022-11-27T09:25:11.154Z,7.43
2022-11-27T09:26:11.157Z,7.39
2022-11-27T09:27:11.138Z,7.51
2022-11-27T09:28:11.138Z,7.70
2022-11-27T09:29:11.144Z,7.79
2022-11-27T09:30:11.090Z,7.88
2022-11-27T09:31:11.087Z,7.95
2022-11-27T09:32:11.175Z,8.03
2022-11-27T09:33:11.069Z,7.58
2022-11-27T09:34:11.083Z,7.83
2022-11-27T09:35:11.126Z,7.69
2022-11-27T09:36:11.032Z,7.70
2022-11-27T09:37:11.017Z,7.98
2022-11-27T09:38:11.012Z,7.85
2022-11-27T09:39:11.066Z,7.70
2022-11-27T09:40:10.983Z,7.66
2022-11-27T09:41:10.963Z,7.69
2022-11-27T09:42:10.956Z,7.63
2022-11-27T09:43:10.949Z,7.66
2022-11-27T09:44:10.973Z,7.69
2022-11-27T09:45:10.933Z,7.98
2022-11-27T09:46:10.998Z,8.23
2022-11-27T09:47:10.910Z,8.24
2022-11-27T09:48:10.904Z,8.09
2022-11-27T09:49:10.933Z,8.08
2022-11-27T09:50:10.883Z,8.10
2022-11-27T09:51:10.856Z,8.46
2022-11-27T09:52:10.852Z,8.61
2022-11-27T09:53:10.835Z,8.53
2022-11-27T09:54:10.866Z,8.55
2022-11-27T09:55:10.825Z,8.74
2022-11-27T09:56:10.829Z,8.70
2022-11-27T09:57:10.803Z,8.36
2022-11-27T09:58:10.784Z,8.51
2022-11-27T09:59:10.811Z,8.61
2022-11-27T10:00:10.786Z,8.81
2022-11-27T10:01:10.820Z,8.92
2022-11-27T10:02:10.861Z,8.94
2022-11-27T10:03:10.823Z,9.00
2022-11-27T10:04:10.723Z,8.55
2022-11-27T10:05:14.641Z,8.49
2022-11-27T10:06:10.690Z,8.38
2022-11-27T10:07:10.752Z,8.41
2022-11-27T10:08:10.776Z,8.66
2022-11-27T10:09:10.661Z,8.92
2022-11-27T10:10:10.698Z,9.13
2022-11-27T10:11:10.648Z,9.40
2022-11-27T10:12:10.629Z,9.44
2022-11-27T10:13:10.622Z,9.51
2022-11-27T10:14:10.604Z,9.59
2022-11-27T10:15:10.644Z,9.26
2022-11-27T10:16:10.625Z,9.29
2022-11-27T10:17:10.642Z,9.72
2022-11-27T10:18:10.676Z,9.99
2022-11-27T10:19:10.550Z,10.10
2022-11-27T10:20:10.572Z,10.02
2022-11-27T10:21:10.526Z,9.68
2022-11-27T10:22:10.510Z,9.73
2022-11-27T10:23:10.530Z,9.68
2022-11-27T10:24:10.487Z,9.50
2022-11-27T10:25:10.517Z,9.41
2022-11-27T10:26:10.467Z,9.44
2022-11-27T10:27:10.459Z,9.08
2022-11-27T10:28:10.452Z,9.22
2022-11-27T10:29:10.432Z,9.41
2022-11-27T10:30:10.441Z,9.40
2022-11-27T10:31:10.437Z,9.44
2022-11-27T10:32:26.818Z,9.47
2022-11-27T10:33:11.397Z,9.46
2022-11-27T10:34:10.371Z,9.59
2022-11-27T10:35:10.409Z,9.51
2022-11-27T10:36:10.357Z,9.56
2022-11-27T10:37:10.353Z,9.65
2022-11-27T10:38:10.343Z,9.89
2022-11-27T10:39:10.347Z,9.94
2022-11-27T10:40:10.365Z,10.02
2022-11-27T10:41:18.585Z,9.97
2022-11-27T10:42:11.308Z,9.99
2022-11-27T10:43:10.282Z,10.10
2022-11-27T10:44:10.277Z,10.16
2022-11-27T10:45:10.319Z,9.98
2022-11-27T10:46:10.299Z,10.20
2022-11-27T10:47:10.239Z,10.54
2022-11-27T10:48:10.214Z,10.84
2022-11-27T10:49:10.213Z,10.81
2022-11-27T10:50:10.230Z,11.05
2022-11-27T10:51:10.182Z,11.62
2022-11-27T10:52:10.169Z,12.42
2022-11-27T10:53:10.180Z,12.97
2022-11-27T10:54:10.173Z,13.18
2022-11-27T10:55:10.274Z,12.50
2022-11-27T10:56:10.153Z,12.40
2022-11-27T10:57:10.127Z,11.97
2022-11-27T10:58:10.114Z,12.27
2022-11-27T10:59:10.097Z,13.00
2022-11-27T11:00:10.110Z,13.59
2022-11-27T11:01:10.163Z,14.00
2022-11-27T11:02:10.163Z,14.17
2022-11-27T11:03:10.047Z,14.72
2022-11-27T11:04:35.944Z,14.69
2022-11-27T11:05:32.800Z,14.25
2022-11-27T11:06:20.618Z,14.20
2022-11-27T11:07:11.025Z,14.05
2022-11-27T11:08:09.999Z,13.79
2022-11-27T11:09:10.010Z,13.65
2022-11-27T11:10:10.021Z,13.92
2022-11-27T11:11:09.963Z,14.26
2022-11-27T11:12:09.952Z,14.23
2022-11-27T11:13:09.946Z,13.65
2022-11-27T11:14:09.926Z,14.05
2022-11-27T11:15:09.928Z,14.43
2022-11-27T11:16:14.527Z,14.73
2022-11-27T11:17:10.931Z,14.69
2022-11-27T11:18:09.902Z,14.10
2022-11-27T11:19:09.871Z,14.18
2022-11-27T11:20:09.863Z,13.38
2022-11-27T11:21:09.892Z,13.05
2022-11-27T11:22:13.305Z,13.47
2022-11-27T11:23:09.813Z,14.35
2022-11-27T11:24:09.820Z,15.03
2022-11-27T11:25:09.793Z,15.64
2022-11-27T11:26:09.822Z,15.61
2022-11-27T11:27:09.787Z,14.72
2022-11-27T11:28:09.794Z,14.60
2022-11-27T11:29:09.758Z,14.35
2022-11-27T11:30:09.753Z,14.28
2022-11-27T11:31:09.790Z,13.89
2022-11-27T11:32:09.828Z,14.18
2022-11-27T11:33:09.739Z,14.20
2022-11-27T11:34:09.703Z,14.25
2022-11-27T11:35:09.685Z,14.22
2022-11-27T11:36:09.670Z,14.08
2022-11-27T11:37:09.689Z,14.51
2022-11-27T11:38:09.668Z,14.15
2022-11-27T11:39:09.648Z,13.56
2022-11-27T11:40:14.599Z,13.85
2022-11-27T11:41:10.613Z,14.73
2022-11-27T11:42:09.661Z,14.88
2022-11-27T11:43:09.603Z,14.99
2022-11-27T11:44:09.595Z,13.97
2022-11-27T11:45:09.581Z,14.20
2022-11-27T11:46:09.707Z,14.26
2022-11-27T11:47:09.614Z,14.12
2022-11-27T11:48:09.556Z,14.59
2022-11-27T11:49:09.533Z,14.47
2022-11-27T11:50:09.515Z,14.40
2022-11-27T11:51:09.517Z,13.62
2022-11-27T11:52:09.526Z,13.59
2022-11-27T11:53:09.484Z,14.26
2022-11-27T11:54:09.478Z,14.18
2022-11-27T11:55:09.465Z,13.81
2022-11-27T11:56:09.456Z,14.36
2022-11-27T11:57:09.472Z,14.14
2022-11-27T11:58:09.427Z,13.62
2022-11-27T11:59:09.418Z,13.38
2022-11-27T12:00:09.411Z,13.74
2022-11-27T12:01:26.563Z,13.83
2022-11-27T12:02:10.451Z,14.55
2022-11-27T12:03:09.388Z,14.94
2022-11-27T12:04:09.412Z,14.92
2022-11-27T12:05:09.353Z,14.86
2022-11-27T12:06:09.354Z,15.00
2022-11-27T12:07:09.361Z,14.72
2022-11-27T12:08:09.383Z,14.69
2022-11-27T12:09:09.335Z,14.53
2022-11-27T12:10:09.303Z,14.94
2022-11-27T12:11:09.274Z,15.27
2022-11-27T12:12:09.323Z,14.70
2022-11-27T12:13:09.294Z,13.93
2022-11-27T12:14:09.254Z,13.89
2022-11-27T12:15:09.259Z,13.13
2022-11-27T12:16:09.282Z,13.62
2022-11-27T12:17:09.245Z,13.74
2022-11-27T12:18:09.222Z,13.67
2022-11-27T12:19:09.198Z,12.67
2022-11-27T12:20:09.192Z,12.06
2022-11-27T12:21:09.185Z,12.02
2022-11-27T12:22:09.195Z,11.75
2022-11-27T12:23:09.152Z,11.55
2022-11-27T12:24:09.147Z,11.37
2022-11-27T12:25:09.134Z,11.19
2022-11-27T12:26:09.113Z,11.02
2022-11-27T12:27:09.152Z,11.04
2022-11-27T12:28:09.098Z,10.90
2022-11-27T12:29:09.081Z,10.97
2022-11-27T12:30:09.075Z,10.76
2022-11-27T12:31:09.095Z,10.93
2022-11-27T12:32:09.084Z,11.15
2022-11-27T12:33:09.032Z,11.22
2022-11-27T12:34:09.032Z,11.47
2022-11-27T12:35:09.025Z,11.62
2022-11-27T12:36:09.028Z,11.73
2022-11-27T12:37:13.736Z,11.75
2022-11-27T12:38:09.979Z,12.06
2022-11-27T12:39:08.997Z,12.40
2022-11-27T12:40:08.968Z,12.62
2022-11-27T12:41:08.942Z,13.18
2022-11-27T12:42:08.988Z,13.50
2022-11-27T12:43:08.922Z,13.22
2022-11-27T12:44:08.916Z,13.12
2022-11-27T12:45:08.907Z,12.78
2022-11-27T12:46:08.948Z,13.01
2022-11-27T12:47:08.916Z,13.22
2022-11-27T12:48:08.878Z,13.46
2022-11-27T12:49:08.866Z,13.60
2022-11-27T12:50:08.854Z,13.74
2022-11-27T12:51:08.848Z,13.47
2022-11-27T12:52:08.821Z,12.87
2022-11-27T12:53:08.833Z,12.28
2022-11-27T12:54:08.806Z,12.15
2022-11-27T12:55:08.789Z,11.99
2022-11-27T12:56:08.797Z,12.09
2022-11-27T12:57:08.793Z,11.72
2022-11-27T12:58:08.798Z,11.75
2022-11-27T12:59:08.738Z,11.90
2022-11-27T13:00:08.741Z,11.91
2022-11-27T13:01:08.760Z,12.09
2022-11-27T13:02:08.751Z,12.12
2022-11-27T13:03:08.716Z,12.18
2022-11-27T13:04:08.677Z,12.22
2022-11-27T13:05:08.667Z,12.20
2022-11-27T13:06:08.675Z,12.22
2022-11-27T13:07:08.646Z,12.43
2022-11-27T13:08:08.676Z,12.28
2022-11-27T13:09:08.644Z,12.28
2022-11-27T13:10:08.609Z,12.32
2022-11-27T13:11:08.624Z,12.22
2022-11-27T13:12:08.609Z,12.13
2022-11-27T13:13:08.613Z,12.04